Time;durP1;ratioP1;P1;durP2;ratioP2;P2;SDS_P1;SDS_P2;PMS_P1;PMS_P2;Temp;Humidity;BMP_temperature;BMP_pressure;BME280_temperature;BME280_humidity;BME280_pressure;Samples;Min_cycle;Max_cycle;Signal;HPM_P1;HPM_P2
2022/12/06 00:01:25;;;;;;;12.10;7.78;;;-0.40;99.90;;;;;;4991558;28;20076;-67
2022/12/06 00:03:57;;;;;;;14.85;8.02;;;-0.40;99.90;;;;;;4977111;28;20045;-68
2022/12/06 00:06:27;;;;;;;15.52;7.32;;;-0.40;99.90;;;;;;4988860;28;20041;-67
2022/12/06 00:08:55;;;;;;;13.02;8.32;;;-0.40;99.90;;;;;;4993672;28;20150;-67
2022/12/06 00:11:28;;;;;;;12.32;7.90;;;-0.40;99.90;;;;;;4998596;28;20086;-69
2022/12/06 00:13:58;;;;;;;15.00;9.25;;;-0.50;99.90;;;;;;4982842;28;20092;-69
2022/12/06 00:16:26;;;;;;;12.50;7.82;;;-0.50;99.90;;;;;;4980710;28;20299;-68
2022/12/06 00:18:53;;;;;;;10.38;7.35;;;-0.50;99.90;;;;;;5000245;28;20049;-68
2022/12/06 00:21:29;;;;;;;11.82;8.20;;;-0.50;99.90;;;;;;4981462;28;20069;-68
2022/12/06 00:23:59;;;;;;;13.35;8.20;;;-0.50;99.90;;;;;;4979530;28;20049;-68
2022/12/06 00:26:27;;;;;;;12.88;7.43;;;-0.50;99.90;;;;;;4993597;28;20415;-68
2022/12/06 00:28:57;;;;;;;11.60;8.02;;;-0.50;99.90;;;;;;4990289;28;20080;-67
2022/12/06 00:31:25;;;;;;;12.10;8.43;;;-0.50;99.90;;;;;;4998931;28;20460;-67
2022/12/06 00:33:53;;;;;;;12.82;7.90;;;-0.50;99.90;;;;;;4988053;28;20645;-67
2022/12/06 00:36:40;;;;;;;10.18;7.03;;;-0.50;99.90;;;;;;4986447;28;20049;-68
2022/12/06 00:39:09;;;;;;;12.68;7.90;;;-0.50;99.90;;;;;;4989412;28;20479;-66
2022/12/06 00:41:36;;;;;;;10.80;6.95;;;-0.50;99.90;;;;;;4984962;28;20547;-67
2022/12/06 00:44:03;;;;;;;12.10;7.68;;;-0.50;99.90;;;;;;4990541;28;20061;-67
2022/12/06 00:46:31;;;;;;;12.38;7.57;;;-0.60;99.90;;;;;;4986223;28;20298;-67
2022/12/06 00:49:00;;;;;;;11.18;6.38;;;-0.60;99.90;;;;;;4990623;28;20045;-67
2022/12/06 00:51:28;;;;;;;8.65;6.13;;;-0.60;99.90;;;;;;4992477;28;21000;-65
2022/12/06 00:53:55;;;;;;;13.00;7.22;;;-0.60;99.90;;;;;;4986365;28;20868;-67
2022/12/06 00:56:22;;;;;;;11.98;7.57;;;-0.60;99.90;;;;;;4986976;28;20406;-67
2022/12/06 00:58:49;;;;;;;14.15;7.72;;;-0.60;99.90;;;;;;4990981;28;20119;-67
2022/12/06 01:01:20;;;;;;;13.10;6.82;;;-0.60;99.90;;;;;;4985734;28;20495;-67
2022/12/06 01:03:50;;;;;;;10.65;6.72;;;-0.60;99.90;;;;;;4993846;28;20135;-67
2022/12/06 01:06:21;;;;;;;9.30;5.57;;;-0.70;99.90;;;;;;4982511;28;20752;-67
2022/12/06 01:08:49;;;;;;;10.77;8.05;;;-0.70;99.90;;;;;;4985545;28;20050;-67
2022/12/06 01:11:16;;;;;;;13.68;6.13;;;-0.70;99.90;;;;;;4991359;28;20427;-68
2022/12/06 01:13:43;;;;;;;10.75;7.07;;;-0.70;99.90;;;;;;4988385;28;20407;-67
2022/12/06 01:16:22;;;;;;;9.77;6.32;;;-0.70;99.90;;;;;;4991349;28;20715;-67
2022/12/06 01:18:54;;;;;;;8.35;5.75;;;-0.70;99.90;;;;;;4987715;28;20053;-67
2022/12/06 01:21:22;;;;;;;9.68;6.10;;;-0.70;99.90;;;;;;4986226;28;20226;-67
2022/12/06 01:23:49;;;;;;;8.95;6.00;;;-0.80;99.90;;;;;;4978212;28;20422;-69
2022/12/06 01:26:23;;;;;;;9.55;5.90;;;-0.80;99.90;;;;;;4978783;28;20045;-67
2022/12/06 01:28:49;;;;;;;6.97;5.60;;;-0.80;99.90;;;;;;4990415;28;20107;-67
2022/12/06 01:31:17;;;;;;;9.95;5.85;;;-0.80;99.90;;;;;;4986734;28;20060;-69
2022/12/06 01:33:44;;;;;;;10.85;7.15;;;-0.80;99.90;;;;;;4991125;28;20245;-67
2022/12/06 01:36:23;;;;;;;9.23;6.30;;;-0.80;99.90;;;;;;4988025;28;20231;-67
2022/12/06 01:38:52;;;;;;;9.85;6.63;;;-0.80;99.90;;;;;;4989495;28;20617;-68
2022/12/06 01:41:21;;;;;;;11.60;6.50;;;-0.90;99.90;;;;;;4988175;28;20164;-66
2022/12/06 01:43:49;;;;;;;8.20;5.80;;;-0.90;99.90;;;;;;4978998;28;20447;-67
2022/12/06 01:46:31;;;;;;;9.35;6.20;;;-0.90;99.90;;;;;;4991983;28;20053;-67
2022/12/06 01:49:14;;;;;;;7.47;5.80;;;-0.90;99.90;;;;;;4981492;28;20042;-68
2022/12/06 01:51:44;;;;;;;9.23;6.78;;;-0.90;99.90;;;;;;4987782;28;20311;-68
2022/12/06 01:54:14;;;;;;;7.57;5.45;;;-0.90;99.90;;;;;;4986390;28;20077;-67
2022/12/06 01:56:42;;;;;;;9.07;6.22;;;-0.90;99.90;;;;;;4985576;28;20127;-68
2022/12/06 01:59:10;;;;;;;13.23;6.57;;;-0.90;99.90;;;;;;4989983;28;20264;-67
2022/12/06 02:01:39;;;;;;;11.68;5.93;;;-0.90;99.90;;;;;;4986931;28;20401;-67
2022/12/06 02:04:07;;;;;;;10.32;6.03;;;-0.90;99.90;;;;;;4985720;28;20115;-68
2022/12/06 02:06:34;;;;;;;9.25;6.00;;;-0.90;99.90;;;;;;4985394;28;20139;-67
2022/12/06 02:09:04;;;;;;;8.35;5.57;;;-0.90;99.90;;;;;;4994851;28;20178;-65
2022/12/06 02:11:31;;;;;;;8.15;5.60;;;-0.90;99.90;;;;;;4987258;28;20062;-66
2022/12/06 02:14:04;;;;;;;9.75;6.53;;;-0.90;99.90;;;;;;4991821;28;20559;-67
2022/12/06 02:17:02;;;;;;;11.07;6.25;;;-0.90;99.90;;;;;;4992557;28;20550;-68
2022/12/06 02:19:53;;;;;;;10.02;6.28;;;-0.90;99.90;;;;;;4986782;28;20060;-67
2022/12/06 02:22:33;;;;;;;6.88;4.88;;;-0.90;99.90;;;;;;4978919;28;20046;-68
2022/12/06 02:25:18;;;;;;;7.60;5.45;;;-0.90;99.90;;;;;;4988184;28;20223;-68
2022/12/06 02:27:57;;;;;;;9.15;5.88;;;-0.90;99.90;;;;;;4989996;28;20048;-67
2022/12/06 02:30:42;;;;;;;7.18;5.18;;;-0.90;99.90;;;;;;4993864;28;20054;-67
2022/12/06 02:33:26;;;;;;;9.48;5.82;;;-0.90;99.90;;;;;;4985284;28;20042;-68
2022/12/06 02:36:02;;;;;;;8.45;6.03;;;-1.00;99.90;;;;;;4992227;28;20049;-68
2022/12/06 02:38:37;;;;;;;8.40;5.63;;;-1.00;99.90;;;;;;4989860;28;20054;-67
2022/12/06 02:41:15;;;;;;;9.88;5.70;;;-1.00;99.90;;;;;;4985731;28;20050;-67
2022/12/06 02:43:49;;;;;;;10.35;6.43;;;-1.00;99.90;;;;;;4987060;28;20760;-67
2022/12/06 02:46:20;;;;;;;9.88;6.53;;;-1.00;99.90;;;;;;4999675;28;20050;-68
2022/12/06 02:48:49;;;;;;;8.73;5.80;;;-1.10;99.90;;;;;;4998269;28;20056;-67
2022/12/06 02:51:18;;;;;;;7.40;5.10;;;-1.10;99.90;;;;;;4994810;28;20638;-67
2022/12/06 02:53:48;;;;;;;8.25;5.72;;;-1.10;99.90;;;;;;4989939;28;20057;-68
2022/12/06 02:56:17;;;;;;;7.80;5.47;;;-1.10;99.90;;;;;;4993753;28;20061;-67
2022/12/06 02:58:44;;;;;;;7.63;5.28;;;-1.20;99.90;;;;;;4983235;28;20108;-67
2022/12/06 03:01:24;;;;;;;10.25;6.15;;;-1.20;99.90;;;;;;4985297;28;20050;-67
2022/12/06 03:04:01;;;;;;;9.10;5.45;;;-1.20;99.90;;;;;;4987609;28;20081;-67
2022/12/06 03:06:51;;;;;;;9.23;6.13;;;-1.20;99.90;;;;;;4992433;28;20614;-67
2022/12/06 03:09:25;;;;;;;9.70;5.72;;;-1.20;99.90;;;;;;4983142;28;20996;-67
2022/12/06 03:11:55;;;;;;;7.05;4.93;;;-1.20;99.90;;;;;;4986304;28;20073;-67
2022/12/06 03:14:25;;;;;;;8.77;5.22;;;-1.20;99.90;;;;;;4988019;28;20107;-65
2022/12/06 03:17:32;;;;;;;9.77;6.07;;;-1.20;99.90;;;;;;4991216;28;20049;-67
2022/12/06 03:20:07;;;;;;;9.52;5.90;;;-1.20;99.90;;;;;;4983871;28;20058;-66
2022/12/06 03:22:37;;;;;;;8.10;5.70;;;-1.20;99.90;;;;;;4991444;28;20092;-66
2022/12/06 03:25:08;;;;;;;7.97;5.05;;;-1.20;99.90;;;;;;4995862;28;20099;-67
2022/12/06 03:27:35;;;;;;;7.05;4.88;;;-1.30;99.90;;;;;;4981495;28;20056;-67
2022/12/06 03:30:07;;;;;;;8.45;5.78;;;-1.30;99.90;;;;;;4993056;28;20058;-66
2022/12/06 03:32:37;;;;;;;9.68;5.72;;;-1.30;99.90;;;;;;4984036;28;20585;-66
2022/12/06 03:35:07;;;;;;;7.35;5.15;;;-1.30;99.90;;;;;;4981344;28;20056;-66
2022/12/06 03:37:38;;;;;;;7.95;4.57;;;-1.30;99.90;;;;;;4983037;28;20045;-66
2022/12/06 03:40:15;;;;;;;9.73;6.25;;;-1.30;99.90;;;;;;4991572;28;20064;-67
2022/12/06 03:42:42;;;;;;;10.10;5.90;;;-1.30;99.90;;;;;;4989715;28;20057;-67
2022/12/06 03:45:11;;;;;;;7.38;4.57;;;-1.30;99.90;;;;;;4994893;28;20466;-67
2022/12/06 03:48:04;;;;;;;8.38;5.47;;;-1.30;99.90;;;;;;4989864;28;20116;-67
2022/12/06 03:50:39;;;;;;;9.20;6.20;;;-1.30;99.90;;;;;;4985501;28;20143;-67
2022/12/06 03:53:06;;;;;;;9.02;5.22;;;-1.30;99.90;;;;;;4991800;28;20045;-67
2022/12/06 03:55:32;;;;;;;7.75;5.05;;;-1.30;99.90;;;;;;4985656;28;20613;-67
2022/12/06 03:57:59;;;;;;;;;;;-1.30;99.90;;;;;;4985712;28;20041;-67
2022/12/06 04:00:26;;;;;;;5.28;3.38;;;-1.40;99.90;;;;;;4983978;28;19936;-67
2022/12/06 04:02:53;;;;;;;8.10;5.32;;;-1.40;99.90;;;;;;4989806;28;20371;-67
2022/12/06 04:05:20;;;;;;;7.80;4.60;;;-1.40;99.90;;;;;;4984776;28;20510;-67
2022/12/06 04:07:47;;;;;;;6.57;4.75;;;-1.40;99.90;;;;;;4974758;28;20042;-66
2022/12/06 04:10:14;;;;;;;7.65;5.32;;;-1.40;99.90;;;;;;4993541;28;20050;-67
2022/12/06 04:12:59;;;;;;;8.55;5.30;;;-1.40;99.90;;;;;;4987984;28;20341;-66
2022/12/06 04:15:35;;;;;;;11.90;5.75;;;-1.40;99.90;;;;;;4985991;28;20038;-66
2022/12/06 04:18:14;;;;;;;7.72;4.80;;;-1.40;99.90;;;;;;4985539;28;20657;-66
2022/12/06 04:23:38;;;;;;;7.47;4.57;;;-1.40;99.90;;;;;;4988484;28;20053;-66
2022/12/06 04:26:08;;;;;;;7.32;4.40;;;-1.50;99.90;;;;;;4987825;28;20061;-66
2022/12/06 04:39:37;;;;;;;7.05;4.22;;;-1.50;99.90;;;;;;4994834;28;20478;-66
2022/12/06 04:44:50;;;;;;;7.43;4.55;;;-1.50;99.90;;;;;;4985151;28;20504;-67
2022/12/06 04:47:17;;;;;;;8.43;4.88;;;-1.50;99.90;;;;;;4987265;28;20041;-66
2022/12/06 04:49:44;;;;;;;8.93;4.65;;;-1.50;99.90;;;;;;4989091;28;20053;-66
2022/12/06 04:52:11;;;;;;;7.78;4.88;;;-1.40;99.90;;;;;;4987733;28;20570;-67
2022/12/06 04:54:39;;;;;;;7.00;4.22;;;-1.40;99.90;;;;;;4981098;28;20169;-66
2022/12/06 04:57:09;;;;;;;6.93;4.72;;;-1.40;99.90;;;;;;4989490;28;20046;-66
2022/12/06 04:59:38;;;;;;;7.65;4.00;;;-1.40;99.90;;;;;;4991399;28;20053;-66
2022/12/06 05:02:06;;;;;;;6.72;4.25;;;-1.30;99.90;;;;;;4983854;28;20161;-67
2022/12/06 05:04:33;;;;;;;8.18;4.70;;;-1.30;99.90;;;;;;4996248;28;20064;-67
2022/12/06 05:07:00;;;;;;;5.72;4.32;;;-1.30;99.90;;;;;;4991043;28;20041;-66
2022/12/06 05:09:27;;;;;;;7.57;4.82;;;-1.20;99.90;;;;;;4984118;28;20754;-67
2022/12/06 05:11:54;;;;;;;6.57;4.40;;;-1.20;99.90;;;;;;4985673;28;20092;-67
2022/12/06 05:14:21;;;;;;;7.60;4.28;;;-1.10;99.90;;;;;;4985221;28;20764;-67
2022/12/06 05:16:48;;;;;;;6.88;4.38;;;-1.10;99.90;;;;;;5000201;28;20049;-67
2022/12/06 05:19:15;;;;;;;14.98;4.07;;;-1.10;99.90;;;;;;4985284;28;20515;-66
2022/12/06 05:21:42;;;;;;;5.72;4.10;;;-1.00;99.90;;;;;;4984606;28;20132;-67
2022/12/06 05:24:09;;;;;;;6.45;4.40;;;-1.00;99.90;;;;;;4991488;28;20049;-67
2022/12/06 05:26:35;;;;;;;5.63;3.72;;;-1.00;99.90;;;;;;4989434;28;20343;-67
2022/12/06 05:29:03;;;;;;;6.40;4.40;;;-0.90;99.90;;;;;;4991055;28;20156;-67
2022/12/06 05:31:30;;;;;;;6.15;4.50;;;-0.90;99.90;;;;;;4995777;28;20136;-66
2022/12/06 05:33:56;;;;;;;6.50;4.25;;;-0.90;99.90;;;;;;4978605;28;20042;-66
2022/12/06 05:36:25;;;;;;;5.90;4.20;;;-0.90;99.90;;;;;;4982483;28;20074;-67
2022/12/06 05:38:53;;;;;;;7.50;4.47;;;-0.80;99.90;;;;;;4977582;28;20537;-67
2022/12/06 05:41:21;;;;;;;7.30;4.75;;;-0.90;99.90;;;;;;4979435;28;20048;-67
2022/12/06 05:43:48;;;;;;;11.35;5.30;;;-0.80;99.90;;;;;;4994421;28;20045;-67
2022/12/06 05:46:15;;;;;;;7.65;4.25;;;-0.80;99.90;;;;;;4978770;28;20049;-67
2022/12/06 05:48:43;;;;;;;6.53;4.10;;;-0.70;99.90;;;;;;4979379;28;20438;-67
2022/12/06 05:51:10;;;;;;;5.65;3.97;;;-0.70;99.90;;;;;;4979301;28;20038;-67
2022/12/06 05:53:38;;;;;;;6.38;3.88;;;-0.60;99.90;;;;;;4987751;28;20061;-66
2022/12/06 05:56:07;;;;;;;5.63;3.95;;;-0.60;99.90;;;;;;4995864;28;20053;-66
2022/12/06 05:58:35;;;;;;;5.32;3.63;;;-0.60;99.90;;;;;;4981427;28;20056;-67
2022/12/06 06:01:03;;;;;;;6.10;3.78;;;-0.50;99.90;;;;;;4989962;28;20128;-67
2022/12/06 06:03:30;;;;;;;4.88;3.72;;;-0.50;99.90;;;;;;4990858;28;20574;-67
2022/12/06 06:05:59;;;;;;;5.38;3.70;;;-0.40;99.90;;;;;;4989940;28;20080;-67
2022/12/06 06:08:27;;;;;;;8.20;4.13;;;-0.40;99.90;;;;;;4990562;28;20053;-67
2022/12/06 06:10:55;;;;;;;5.82;3.90;;;-0.40;99.90;;;;;;4995934;28;20041;-67
2022/12/06 06:13:22;;;;;;;5.63;3.58;;;-0.40;99.90;;;;;;4990403;28;20049;-67
2022/12/06 06:15:49;;;;;;;5.50;4.03;;;-0.40;99.90;;;;;;4985410;28;20050;-67
2022/12/06 06:18:17;;;;;;;7.13;4.43;;;-0.40;99.90;;;;;;4993767;28;20056;-67
2022/12/06 06:20:52;;;;;;;5.40;3.72;;;-0.40;99.90;;;;;;4988431;28;20042;-67
2022/12/06 06:23:19;;;;;;;8.93;4.45;;;-0.30;99.90;;;;;;4987802;28;20049;-67
2022/12/06 06:25:47;;;;;;;5.40;3.70;;;-0.30;99.90;;;;;;4995603;28;20156;-66
2022/12/06 06:28:14;;;;;;;5.90;4.00;;;-0.30;99.90;;;;;;4996353;28;20041;-67
2022/12/06 06:30:40;;;;;;;6.07;3.42;;;-0.30;99.90;;;;;;4988484;28;20250;-67
2022/12/06 06:33:08;;;;;;;6.28;3.63;;;-0.30;99.90;;;;;;4990003;28;20479;-67
2022/12/06 06:35:36;;;;;;;7.97;4.50;;;-0.20;99.90;;;;;;4988589;28;20072;-67
2022/12/06 06:38:03;;;;;;;6.47;4.20;;;-0.20;99.90;;;;;;4989501;28;20380;-68
2022/12/06 06:40:30;;;;;;;6.10;4.38;;;-0.20;99.90;;;;;;4982586;28;20460;-67
2022/12/06 06:43:16;;;;;;;5.28;4.07;;;-0.20;99.90;;;;;;4989250;28;20068;-67
2022/12/06 06:45:54;;;;;;;5.03;3.65;;;-0.20;99.90;;;;;;4979302;28;20305;-66
2022/12/06 06:48:23;;;;;;;7.15;4.15;;;-0.10;99.90;;;;;;4986778;28;20050;-66
2022/12/06 06:50:51;;;;;;;8.68;4.03;;;-0.20;99.90;;;;;;4992200;28;20159;-68
2022/12/06 06:53:25;;;;;;;8.68;4.80;;;-0.10;99.90;;;;;;4986471;28;20038;-67
2022/12/06 06:55:53;;;;;;;7.75;4.50;;;-0.20;99.90;;;;;;4997238;28;20103;-66
2022/12/06 06:58:20;;;;;;;6.05;3.88;;;-0.20;99.90;;;;;;4986713;28;20454;-66
2022/12/06 07:00:55;;;;;;;5.57;4.07;;;-0.20;99.90;;;;;;4988252;28;20474;-67
2022/12/06 07:03:23;;;;;;;8.50;4.85;;;-0.20;99.90;;;;;;4986741;28;20050;-67
2022/12/06 07:05:52;;;;;;;7.40;4.90;;;-0.20;99.90;;;;;;4992656;28;20225;-67
2022/12/06 07:08:19;;;;;;;7.28;4.30;;;-0.20;99.90;;;;;;4990008;28;20045;-66
2022/12/06 07:10:47;;;;;;;10.25;5.35;;;-0.20;99.90;;;;;;4987468;28;20037;-67
2022/12/06 07:13:15;;;;;;;9.07;4.80;;;-0.30;99.90;;;;;;4987855;28;20053;-67
2022/12/06 07:15:43;;;;;;;5.20;3.95;;;-0.30;99.90;;;;;;4992885;28;20058;-66
2022/12/06 07:18:09;;;;;;;8.13;5.25;;;-0.30;99.90;;;;;;4986695;28;20346;-67
2022/12/06 07:20:36;;;;;;;7.00;4.70;;;-0.30;99.90;;;;;;4991124;28;20049;-65
2022/12/06 07:23:03;;;;;;;6.80;5.30;;;-0.40;99.90;;;;;;4984738;28;20382;-66
2022/12/06 07:25:33;;;;;;;8.43;5.25;;;-0.30;99.90;;;;;;4989868;28;20052;-67
2022/12/06 07:28:00;;;;;;;9.07;5.32;;;-0.30;99.90;;;;;;4983596;28;20140;-66
2022/12/06 07:30:27;;;;;;;7.28;5.20;;;-0.30;99.90;;;;;;4984202;28;20039;-66
2022/12/06 07:32:54;;;;;;;9.00;5.28;;;-0.30;99.90;;;;;;4990090;28;20048;-65
2022/12/06 07:35:21;;;;;;;9.27;5.28;;;-0.20;99.90;;;;;;4986540;28;20364;-67
2022/12/06 07:37:47;;;;;;;11.05;4.75;;;-0.30;99.90;;;;;;4984987;28;20052;-68
2022/12/06 07:40:15;;;;;;;9.73;4.60;;;-0.30;99.90;;;;;;4987085;28;20447;-65
2022/12/06 07:45:28;;;;;;;9.18;5.70;;;-0.30;99.90;;;;;;4981558;28;20041;-67
2022/12/06 07:47:55;;;;;;;8.50;6.00;;;-0.30;99.90;;;;;;4985208;28;20137;-67
2022/12/06 07:50:23;;;;;;;8.82;5.43;;;-0.30;99.90;;;;;;4983462;28;20053;-67
2022/12/06 07:52:50;;;;;;;9.82;5.75;;;-0.30;99.90;;;;;;4984855;28;20385;-68
2022/12/06 07:55:17;;;;;;;10.25;5.80;;;-0.20;99.90;;;;;;4981893;28;20053;-67
2022/12/06 07:57:44;;;;;;;9.98;5.70;;;-0.10;99.90;;;;;;4981667;28;20053;-67
2022/12/06 08:00:14;;;;;;;9.25;5.88;;;0.10;99.90;;;;;;4981009;28;20048;-67
2022/12/06 08:02:41;;;;;;;12.63;6.38;;;0.30;99.90;;;;;;4985189;28;20603;-66
2022/12/06 08:05:08;;;;;;;10.85;7.35;;;0.60;99.90;;;;;;4983843;28;20109;-66
2022/12/06 08:07:35;;;;;;;10.85;6.72;;;0.90;99.90;;;;;;4984909;28;20056;-68
2022/12/06 08:10:02;;;;;;;;;;;1.40;99.90;;;;;;4987031;28;20593;-67
2022/12/06 08:12:31;;;;;;;11.10;7.25;;;1.90;99.90;;;;;;4986158;28;20028;-68
2022/12/06 08:14:58;;;;;;;13.50;7.43;;;2.30;99.90;;;;;;4982854;28;20407;-67
2022/12/06 08:17:26;;;;;;;11.60;6.97;;;2.70;99.90;;;;;;5000334;28;20058;-67
2022/12/06 08:19:53;;;;;;;12.40;6.88;;;3.20;99.90;;;;;;4960030;28;20076;-67
2022/12/06 08:22:20;;;;;;;10.27;6.70;;;3.60;99.90;;;;;;4983293;28;20060;-67
2022/12/06 08:24:46;;;;;;;;;;;4.00;99.90;;;;;;4991448;28;20085;-68
2022/12/06 08:27:14;;;;;;;11.88;7.85;;;4.30;99.90;;;;;;4982458;28;19929;-67
2022/12/06 08:29:43;;;;;;;11.90;7.57;;;4.60;99.90;;;;;;4984384;28;20224;-67
2022/12/06 08:32:10;;;;;;;21.15;7.18;;;4.90;99.90;;;;;;4982279;28;20045;-69
2022/12/06 08:34:37;;;;;;;12.43;6.60;;;5.20;99.90;;;;;;4982887;28;20212;-68
2022/12/06 08:37:04;;;;;;;8.07;5.43;;;5.50;99.90;;;;;;4984129;28;20050;-68
2022/12/06 08:39:31;;;;;;;;;;;5.90;99.90;;;;;;4982750;28;20251;-68
2022/12/06 08:41:58;;;;;;;;;;;6.20;99.90;;;;;;4985812;28;19925;-66
2022/12/06 08:44:26;;;;;;;;;;;6.50;99.90;;;;;;4985813;28;20319;-68
2022/12/06 08:46:53;;;;;;;;;;;6.60;99.90;;;;;;4987272;28;19929;-68
2022/12/06 08:49:21;;;;;;;;;;;6.90;99.90;;;;;;4982878;28;19925;-68
2022/12/06 08:51:48;;;;;;;;;;;7.20;99.90;;;;;;4987244;28;20512;-68
2022/12/06 08:54:16;;;;;;;;;;;7.40;99.90;;;;;;4993791;28;20337;-67
2022/12/06 08:56:43;;;;;;;;;;;7.60;99.90;;;;;;4989947;28;20156;-68
2022/12/06 08:59:09;;;;;;;;;;;7.80;99.90;;;;;;4981423;28;20357;-68
2022/12/06 09:01:36;;;;;;;;;;;7.80;99.90;;;;;;4989801;28;20187;-68
2022/12/06 09:04:05;;;;;;;;;;;8.00;99.90;;;;;;4982926;28;19933;-69
2022/12/06 09:06:32;;;;;;;;;;;8.10;99.90;;;;;;4987882;28;20405;-68
2022/12/06 09:08:59;;;;;;;;;;;8.30;99.90;;;;;;4980928;28;19925;-68
2022/12/06 09:11:26;;;;;;;;;;;8.50;99.90;;;;;;4983508;28;19988;-70
2022/12/06 09:13:53;;;;;;;;;;;8.40;99.90;;;;;;4988991;28;19937;-68
2022/12/06 09:16:21;;;;;;;;;;;8.40;99.90;;;;;;4989603;28;20414;-68
2022/12/06 09:18:50;;;;;;;;;;;8.50;99.90;;;;;;4987660;28;20247;-67
2022/12/06 09:21:19;;;;;;;;;;;8.60;99.90;;;;;;4984791;28;19925;-68
2022/12/06 09:23:46;;;;;;;;;;;8.70;99.90;;;;;;4983745;28;20019;-68
2022/12/06 09:26:13;;;;;;;;;;;8.80;99.90;;;;;;4992985;28;19933;-69
2022/12/06 09:28:41;;;;;;;;;;;9.10;99.90;;;;;;4999138;28;19992;-68
2022/12/06 09:31:07;;;;;;;;;;;9.20;99.90;;;;;;4989826;28;19931;-67
2022/12/06 09:33:34;;;;;;;;;;;9.30;99.60;;;;;;4975139;28;19925;-68
2022/12/06 09:36:04;;;;;;;;;;;9.30;99.30;;;;;;4981709;28;20204;-68
2022/12/06 09:38:34;;;;;;;;;;;9.40;98.80;;;;;;4989109;28;20049;-68
2022/12/06 09:41:04;;;;;;;;;;;9.50;99.90;;;;;;4986417;28;20390;-68
2022/12/06 09:43:38;;;;;;;;;;;9.60;95.20;;;;;;4984219;28;19945;-68
2022/12/06 09:46:14;;;;;;;;;;;9.70;98.30;;;;;;4984402;28;20199;-69
2022/12/06 09:48:41;;;;;;;;;;;9.80;97.80;;;;;;4986717;28;19932;-67
2022/12/06 09:51:26;;;;;;;;;;;9.90;96.80;;;;;;4987841;28;19931;-67
2022/12/06 09:53:59;;;;;;;;;;;9.90;92.70;;;;;;5000474;28;19929;-67
2022/12/06 09:56:26;;;;;;;;;;;9.90;94.10;;;;;;4992165;28;19929;-68
2022/12/06 09:58:53;;;;;;;;;;;9.90;92.60;;;;;;4982527;28;19983;-67
2022/12/06 10:01:40;;;;;;;;;;;10.00;91.60;;;;;;4988284;28;20138;-67
2022/12/06 10:04:26;;;;;;;;;;;10.10;92.40;;;;;;4986956;28;19932;-68
2022/12/06 10:06:56;;;;;;;;;;;10.20;91.40;;;;;;4987010;28;19936;-68
2022/12/06 10:09:29;;;;;;;;;;;10.30;90.40;;;;;;4984396;28;19935;-69
2022/12/06 10:12:11;;;;;;;;;;;10.50;91.90;;;;;;4981983;28;20379;-69
2022/12/06 10:14:47;;;;;;;;;;;10.70;86.60;;;;;;4990523;28;19937;-69
2022/12/06 10:17:32;;;;;;;;;;;10.70;88.70;;;;;;4992426;28;20320;-69
2022/12/06 10:19:59;;;;;;;;;;;10.70;86.80;;;;;;4996700;28;20036;-68
2022/12/06 10:22:34;;;;;;;;;;;10.80;86.30;;;;;;5000567;28;19924;-67
2022/12/06 10:25:13;;;;;;;;;;;10.90;86.60;;;;;;5000556;28;20077;-70
2022/12/06 10:28:02;;;;;;;;;;;11.00;86.60;;;;;;4999387;28;19963;-69
2022/12/06 10:30:29;;;;;;;;;;;11.10;87.60;;;;;;4994548;28;20405;-69
2022/12/06 10:33:04;;;;;;;;;;;11.10;81.20;;;;;;4987637;28;20285;-68
2022/12/06 10:35:33;;;;;;;;;;;11.10;78.80;;;;;;4985427;28;19986;-67
2022/12/06 10:38:05;;;;;;;;;;;11.10;84.00;;;;;;4981975;28;19925;-68
2022/12/06 10:40:45;;;;;;;;;;;11.20;82.90;;;;;;4983948;28;19933;-69
2022/12/06 10:43:22;;;;;;;;;;;11.30;82.80;;;;;;4981211;28;19925;-68
2022/12/06 10:49:02;;;;;;;;;;;11.20;81.60;;;;;;4983816;28;19924;-70
2022/12/06 10:51:35;;;;;;;;;;;11.10;82.40;;;;;;4983885;28;19979;-70
2022/12/06 10:54:09;;;;;;;;;;;11.20;82.20;;;;;;4985319;28;20437;-70
2022/12/06 10:56:38;;;;;;;;;;;11.20;81.70;;;;;;4984206;28;20413;-70
2022/12/06 10:59:19;;;;;;;;;;;11.30;81.70;;;;;;4984391;28;20052;-70
2022/12/06 11:01:47;;;;;;;;;;;11.30;82.50;;;;;;4983285;28;19925;-71
2022/12/06 11:04:33;;;;;;;;;;;11.30;81.80;;;;;;4988007;28;20337;-71
2022/12/06 11:07:18;;;;;;;;;;;11.40;80.30;;;;;;4982218;28;20361;-70
2022/12/06 11:09:48;;;;;;;;;;;11.50;82.00;;;;;;4986159;28;19924;-70
2022/12/06 11:12:17;;;;;;;;;;;11.60;79.30;;;;;;5001807;28;20442;-72
2022/12/06 11:14:47;;;;;;;;;;;11.60;79.10;;;;;;5003431;28;20336;-72
2022/12/06 11:17:17;;;;;;;;;;;11.60;80.80;;;;;;5003569;28;19968;-71
2022/12/06 11:19:43;;;;;;;;;;;11.60;80.60;;;;;;4985389;28;19969;-71
2022/12/06 11:22:20;;;;;;;;;;;11.60;81.50;;;;;;5004307;28;20022;-71
2022/12/06 11:24:53;;;;;;;;;;;11.60;83.40;;;;;;4993107;28;19926;-71
2022/12/06 11:27:46;;;;;;;;;;;11.70;83.50;;;;;;4997995;28;20315;-72
2022/12/06 11:30:15;;;;;;;;;;;11.70;81.20;;;;;;4982289;28;20389;-71
2022/12/06 11:32:48;;;;;;;;;;;11.80;80.80;;;;;;4988312;28;20279;-71
2022/12/06 11:35:20;;;;;;;;;;;11.80;80.00;;;;;;4995276;28;19925;-72
2022/12/06 11:37:48;;;;;;;;;;;11.80;79.60;;;;;;4990727;28;19956;-71
2022/12/06 11:40:21;;;;;;;;;;;11.80;79.60;;;;;;4984819;28;20457;-71
2022/12/06 11:42:48;;;;;;;;;;;11.80;78.50;;;;;;4981295;28;19932;-71
2022/12/06 11:45:25;;;;;;;;;;;11.60;83.30;;;;;;4987942;28;20279;-71
2022/12/06 11:47:53;;;;;;;;;;;11.60;83.20;;;;;;4996196;28;19933;-72
2022/12/06 11:50:21;;;;;;;;;;;11.60;85.90;;;;;;4995827;28;20161;-71
2022/12/06 11:53:10;;;;;;;;;;;11.70;87.70;;;;;;4997975;28;19974;-70
2022/12/06 11:55:41;;;;;;;;;;;11.80;85.10;;;;;;4984339;28;19925;-71
2022/12/06 11:58:12;;;;;;;;;;;11.80;85.40;;;;;;4996966;28;20140;-71
2022/12/06 12:00:55;;;;;;;;;;;11.80;85.30;;;;;;5002548;28;20930;-72
2022/12/06 12:03:27;;;;;;;;;;;11.90;85.70;;;;;;4982853;28;20519;-71
2022/12/06 12:06:13;;;;;;;;;;;11.90;85.40;;;;;;4997946;28;20809;-72
2022/12/06 12:08:39;;;;;;;;;;;12.00;86.00;;;;;;4981700;28;20381;-70
2022/12/06 12:11:17;;;;;;;;;;;12.00;85.80;;;;;;4984139;28;19953;-70
2022/12/06 12:13:49;;;;;;;;;;;12.00;85.30;;;;;;4983784;28;19930;-70
2022/12/06 12:16:19;;;;;;;;;;;11.80;85.30;;;;;;4984141;28;20430;-71
2022/12/06 12:18:51;;;;;;;;;;;11.60;87.20;;;;;;4984333;28;20240;-70
2022/12/06 12:21:28;;;;;;;;;;;11.40;87.40;;;;;;4982296;28;20552;-71
2022/12/06 12:23:55;;;;;;;;;;;11.30;90.00;;;;;;4984185;28;19929;-70
2022/12/06 12:26:22;;;;;;;;;;;11.30;90.60;;;;;;4980115;28;20394;-71
2022/12/06 12:29:24;;;;;;;;;;;11.20;92.60;;;;;;4983121;28;20524;-70
2022/12/06 12:31:58;;;;;;;;;;;11.30;93.40;;;;;;4999716;28;20406;-71
2022/12/06 12:34:26;;;;;;;;;;;11.30;94.40;;;;;;4997330;28;19932;-71
2022/12/06 12:36:55;;;;;;;;;;;11.30;94.60;;;;;;4983869;28;20193;-70
2022/12/06 12:39:22;;;;;;;;;;;11.20;94.40;;;;;;4981701;28;20342;-71
2022/12/06 12:41:49;;;;;;;;;;;11.20;95.20;;;;;;4983687;28;19922;-71
2022/12/06 12:44:25;;;;;;;;;;;11.10;96.20;;;;;;4983142;28;19921;-71
2022/12/06 12:47:16;;;;;;;;;;;11.00;97.70;;;;;;4981527;28;20291;-71
2022/12/06 12:49:42;;;;;;;;;;;10.90;99.50;;;;;;4983074;28;20454;-70
2022/12/06 12:52:29;;;;;;;;;;;10.80;99.90;;;;;;4981435;28;20427;-71
2022/12/06 12:54:58;;;;;;;;;;;10.70;99.90;;;;;;4983321;28;20007;-70
2022/12/06 12:57:25;;;;;;;;;;;10.50;99.90;;;;;;4980092;28;19932;-70
2022/12/06 12:59:52;;;;;;;;;;;10.50;99.90;;;;;;4981437;28;19932;-71
2022/12/06 13:02:25;;;;;;;;;;;10.40;99.90;;;;;;4982207;28;19933;-70
2022/12/06 13:04:58;;;;;;;;;;;10.30;99.90;;;;;;4983084;28;19925;-71
2022/12/06 13:07:45;;;;;;;;;;;10.40;99.90;;;;;;4983971;28;19933;-70
2022/12/06 13:10:26;;;;;;;;;;;10.50;99.90;;;;;;4984641;28;19929;-71
2022/12/06 13:12:54;;;;;;;;;;;10.50;99.90;;;;;;4985821;28;19926;-71
2022/12/06 13:15:28;;;;;;;;;;;10.60;99.90;;;;;;4986039;28;19935;-72
2022/12/06 13:17:57;;;;;;;;;;;10.60;99.90;;;;;;4966758;28;19984;-73
2022/12/06 13:20:32;;;;;;;;;;;10.60;99.90;;;;;;4998373;28;20012;-72
2022/12/06 13:23:01;;;;;;;;;;;10.60;99.90;;;;;;5004795;28;19925;-72
2022/12/06 13:25:28;;;;;;;;;;;10.60;99.90;;;;;;4985132;28;19984;-72
2022/12/06 13:27:57;;;;;;;;;;;10.60;99.90;;;;;;4985069;28;20390;-72
2022/12/06 13:30:32;;;;;;;;;;;10.60;99.90;;;;;;4984019;28;20388;-72
2022/12/06 13:33:04;;;;;;;;;;;10.70;99.90;;;;;;4984562;28;20288;-72
2022/12/06 13:35:31;;;;;;;;;;;10.70;99.90;;;;;;4983885;28;19925;-71
2022/12/06 13:38:18;;;;;;;;;;;10.60;99.90;;;;;;4984625;28;19925;-72
2022/12/06 13:40:51;;;;;;;;;;;10.50;99.90;;;;;;4982160;28;19948;-71
2022/12/06 13:43:24;;;;;;;;;;;10.30;99.90;;;;;;4983371;28;19925;-71
2022/12/06 13:46:00;;;;;;;;;;;10.20;99.90;;;;;;4984721;28;19925;-71
2022/12/06 13:48:27;;;;;;;;;;;10.00;99.90;;;;;;4984044;28;20389;-71
2022/12/06 13:51:12;;;;;;;;;;;10.00;99.90;;;;;;4985993;28;19932;-71
2022/12/06 13:53:59;;;;;;;;;;;9.80;99.90;;;;;;4983932;28;20405;-72
2022/12/06 13:56:35;;;;;;;;;;;9.60;99.90;;;;;;4983566;28;19929;-72
2022/12/06 13:59:22;;;;;;;;;;;9.20;99.90;;;;;;4984568;28;19925;-71
2022/12/06 14:01:49;;;;;;;;;;;8.90;99.90;;;;;;4980877;28;20234;-71
2022/12/06 14:04:27;;;;;;;;;;;8.50;99.90;;;;;;4984418;28;19925;-71